Time;durP1;ratioP1;P1;durP2;ratioP2;P2;SDS_P1;SDS_P2;PMS_P1;PMS_P2;Temp;Humidity;BMP_temperature;BMP_pressure;BME280_temperature;BME280_humidity;BME280_pressure;Samples;Min_cycle;Max_cycle;Signal;HPM_P1;HPM_P2
2023/03/13 00:02:03;;;;;;;21.27;3.40;;;;;;;8.03;100.00;100098.84;5032792;28;20099;-90
2023/03/13 00:04:28;;;;;;;19.17;3.85;;;;;;;7.97;100.00;100097.88;5033533;28;20096;-90
2023/03/13 00:06:57;;;;;;;25.53;3.50;;;;;;;7.98;100.00;100087.88;5034271;28;20056;-90
2023/03/13 00:09:22;;;;;;;20.50;3.10;;;;;;;7.96;100.00;100082.72;5036132;28;20033;-91
2023/03/13 00:11:48;;;;;;;22.67;3.03;;;;;;;8.00;100.00;100081.22;5037764;28;20025;-91
2023/03/13 00:14:13;;;;;;;28.13;3.78;;;;;;;8.02;100.00;100068.31;5036265;28;20029;-90
2023/03/13 00:16:39;;;;;;;22.33;3.08;;;;;;;8.02;100.00;100067.50;5037490;28;20029;-90
2023/03/13 00:19:06;;;;;;;26.03;3.30;;;;;;;8.04;100.00;100068.94;5037286;28;20397;-89
2023/03/13 00:21:32;;;;;;;21.30;2.92;;;;;;;8.05;100.00;100054.38;5036306;28;20461;-90
2023/03/13 00:23:59;;;;;;;20.73;2.55;;;;;;;8.08;100.00;100045.03;5037530;28;20075;-90
2023/03/13 00:26:29;;;;;;;19.25;2.90;;;;;;;8.08;100.00;100039.63;5036867;28;20086;-90
2023/03/13 00:28:55;;;;;;;37.70;4.05;;;;;;;8.09;100.00;100041.28;5036072;28;20109;-90
2023/03/13 00:31:29;;;;;;;22.90;3.78;;;;;;;8.09;100.00;100038.56;5035469;28;20061;-90
2023/03/13 00:33:59;;;;;;;22.02;3.28;;;;;;;8.10;100.00;100031.28;5037212;28;20036;-90
2023/03/13 00:36:29;;;;;;;27.30;3.47;;;;;;;8.11;100.00;100022.16;5037124;28;20061;-89
2023/03/13 00:38:58;;;;;;;31.67;3.60;;;;;;;8.12;100.00;100008.41;5035745;28;20045;-89
2023/03/13 00:41:26;;;;;;;25.33;3.55;;;;;;;8.15;100.00;100002.56;5037135;28;20059;-89
2023/03/13 00:43:52;;;;;;;24.25;3.25;;;;;;;8.20;100.00;100000.03;5036896;28;20029;-89
2023/03/13 00:46:20;;;;;;;24.35;3.28;;;;;;;8.21;100.00;99998.97;5019392;28;20025;-89
2023/03/13 00:48:46;;;;;;;26.48;4.00;;;;;;;8.24;100.00;99997.72;5036910;28;20116;-89
2023/03/13 00:51:14;;;;;;;24.42;3.05;;;;;;;8.20;100.00;99983.81;5035860;28;20029;-89
2023/03/13 00:53:41;;;;;;;32.78;3.67;;;;;;;8.24;100.00;99986.91;5035364;28;20036;-90
2023/03/13 00:56:09;;;;;;;22.63;3.85;;;;;;;8.25;100.00;99970.47;5035922;28;20029;-91
2023/03/13 00:58:36;;;;;;;24.27;3.47;;;;;;;8.37;100.00;99967.03;5036533;28;20040;-89
2023/03/13 01:01:14;;;;;;;25.30;3.95;;;;;;;8.38;100.00;99972.22;5039052;28;20120;-90
2023/03/13 01:03:42;;;;;;;24.52;3.78;;;;;;;8.38;100.00;99964.09;5036546;28;20049;-90
2023/03/13 01:06:11;;;;;;;26.92;4.38;;;;;;;8.43;100.00;99960.75;5041464;28;20032;-90
2023/03/13 01:08:36;;;;;;;26.33;4.15;;;;;;;8.44;100.00;99948.91;5043555;28;20033;-90
2023/03/13 01:11:08;;;;;;;17.13;3.57;;;;;;;8.50;100.00;99931.78;5041021;28;20029;-89
2023/03/13 01:13:35;;;;;;;26.02;3.90;;;;;;;8.52;100.00;99936.97;5040029;28;20033;-90
2023/03/13 01:16:11;;;;;;;17.60;3.83;;;;;;;8.58;100.00;99933.38;5039004;28;20030;-89
2023/03/13 01:18:38;;;;;;;19.73;4.07;;;;;;;8.63;100.00;99925.41;5033952;28;20033;-89
2023/03/13 01:21:05;;;;;;;20.30;3.40;;;;;;;8.59;100.00;99922.34;5035334;28;20029;-89
2023/03/13 01:23:31;;;;;;;22.77;3.70;;;;;;;8.61;100.00;99914.00;5034637;28;20030;-89
2023/03/13 01:25:56;;;;;;;25.58;4.45;;;;;;;8.69;100.00;99910.16;5034486;28;20033;-90
2023/03/13 01:28:23;;;;;;;19.47;4.10;;;;;;;8.72;100.00;99888.88;5034594;28;20116;-89
2023/03/13 01:30:51;;;;;;;23.15;4.10;;;;;;;8.74;100.00;99889.50;5036054;28;20033;-88
2023/03/13 01:33:36;;;;;;;14.13;3.50;;;;;;;8.80;100.00;99885.06;5034664;28;20049;-89
2023/03/13 01:36:03;;;;;;;21.73;4.10;;;;;;;8.84;100.00;99886.25;5018120;28;20041;-89
2023/03/13 01:38:28;;;;;;;13.50;3.47;;;;;;;8.90;100.00;99882.66;5018109;28;20033;-89
2023/03/13 01:40:54;;;;;;;17.50;4.70;;;;;;;8.88;100.00;99895.56;5034340;28;20076;-89
2023/03/13 01:43:24;;;;;;;20.00;3.95;;;;;;;8.89;100.00;99874.78;5018377;28;20037;-89
2023/03/13 01:45:58;;;;;;;19.67;4.57;;;;;;;8.96;100.00;99870.06;5034721;28;20097;-88
2023/03/13 01:48:36;;;;;;;21.50;4.40;;;;;;;9.04;100.00;99883.28;5034918;28;20038;-91
2023/03/13 01:51:05;;;;;;;12.35;2.60;;;;;;;9.15;100.00;99865.44;5034012;28;20033;-89
2023/03/13 01:53:35;;;;;;;15.38;3.50;;;;;;;9.10;100.00;99849.09;5034778;28;20075;-88
2023/03/13 01:56:04;;;;;;;16.50;3.13;;;;;;;9.13;100.00;99851.31;5034307;28;20037;-89
2023/03/13 01:58:30;;;;;;;17.38;3.13;;;;;;;9.15;100.00;99845.69;5034179;28;20457;-89
2023/03/13 02:00:59;;;;;;;10.33;2.53;;;;;;;9.21;100.00;99840.19;5034358;28;20547;-91
2023/03/13 02:03:34;;;;;;;10.68;3.25;;;;;;;9.23;100.00;99831.84;5033862;28;20061;-89
2023/03/13 02:06:05;;;;;;;12.95;2.97;;;;;;;9.26;100.00;99817.84;5034346;28;20580;-90
2023/03/13 02:08:48;;;;;;;13.10;2.67;;;;;;;9.31;100.00;99815.25;5035401;28;20111;-89
2023/03/13 02:11:19;;;;;;;13.45;3.22;;;;;;;9.38;100.00;99815.97;5035484;28;20036;-89
2023/03/13 02:13:46;;;;;;;11.20;2.97;;;;;;;9.40;100.00;99797.59;5035355;28;20033;-89
2023/03/13 02:16:11;;;;;;;16.27;3.40;;;;;;;9.40;100.00;99789.47;5034285;28;20343;-89
2023/03/13 02:18:37;;;;;;;10.63;2.90;;;;;;;9.42;100.00;99794.66;5017461;28;20040;-89
2023/03/13 02:21:34;;;;;;;17.38;3.17;;;;;;;9.47;100.00;99765.81;5035210;28;20420;-89
2023/03/13 02:24:31;;;;;;;13.23;3.80;;;;;;;9.45;100.00;99761.72;5033896;28;20025;-89
2023/03/13 02:27:46;;;;;;;9.68;2.95;;;;;;;9.50;100.00;99752.91;5035144;28;20037;-94
2023/03/13 02:30:58;;;;;;;;;;;;;;;;;;;;;
2023/03/13 02:34:01;;;;;;;;;;;;;;;;;;;;;
2023/03/13 02:37:22;;;;;;;13.75;3.83;;;;;;;9.56;100.00;99765.50;5030300;28;20488;-93
2023/03/13 02:44:12;;;;;;;;;;;;;;;;;;;;;
2023/03/13 02:47:44;;;;;;;;;;;;;;;;;;;;;
2023/03/13 02:50:41;;;;;;;;;;;;;;;;;;;;;
2023/03/13 02:56:31;;;;;;;;;;;;;;;;;;;;;
2023/03/13 02:59:43;;;;;;;;;;;;;;;;;;;;;
2023/03/13 03:02:59;;;;;;;12.17;5.03;;;;;;;9.82;100.00;99737.91;5036290;28;20540;-93
2023/03/13 03:09:30;;;;;;;;;;;;;;;;;;;;;
2023/03/13 03:12:37;;;;;;;;;;;;;;;;;;;;;
2023/03/13 03:15:52;;;;;;;10.82;5.13;;;;;;;9.98;100.00;99738.22;5044323;28;20100;-93
2023/03/13 03:19:03;;;;;;;;;;;;;;;;;;;;;
2023/03/13 03:25:31;;;;;;;11.95;4.43;;;;;;;10.07;100.00;99739.53;5021716;28;20044;-93
2023/03/13 03:35:53;;;;;;;;;;;;;;;;;;;;;
2023/03/13 03:38:57;;;;;;;13.40;5.60;;;;;;;10.16;100.00;99721.81;4859521;29;20055;-94
2023/03/13 03:42:31;;;;;;;;;;;;;;;;;;;;;
2023/03/13 03:48:41;;;;;;;;;;;;;;;;;;;;;
2023/03/13 04:16:19;;;;;;;;;;;;;;;;;;;;;
2023/03/13 04:25:41;;;;;;;9.43;5.57;;;;;;;10.60;100.00;99677.94;4838871;29;20074;-94
2023/03/13 04:29:31;;;;;;;;;;;;;;;;;;;;;
2023/03/13 04:38:55;;;;;;;7.65;4.55;;;;;;;10.71;100.00;99654.53;4939743;28;20117;-93
2023/03/13 04:56:26;;;;;;;;;;;;;;;;;;;;;
2023/03/13 05:03:00;;;;;;;;;;;;;;;;;;;;;
2023/03/13 05:12:38;;;;;;;;;;;;;;;;;;;;;
2023/03/13 05:15:21;;;;;;;6.47;3.20;;;;;;;11.24;100.00;99615.16;5014968;28;20036;-93
2023/03/13 05:18:40;;;;;;;6.20;2.70;;;;;;;11.28;100.00;99620.09;4967292;28;20040;-93
2023/03/13 05:25:17;;;;;;;;;;;;;;;;;;;;;
2023/03/13 05:35:17;;;;;;;;;;;;;;;;;;;;;
2023/03/13 05:45:24;;;;;;;;;;;;;;;;;;;;;
2023/03/13 05:51:37;;;;;;;;;;;;;;;;;;;;;
2023/03/13 05:54:39;;;;;;;5.03;2.60;;;;;;;11.78;100.00;99611.00;4975224;28;20037;-92
2023/03/13 05:57:44;;;;;;;;;;;;;;;;;;;;;
2023/03/13 06:04:09;;;;;;;;;;;;;;;;;;;;;
2023/03/13 06:07:16;;;;;;;;;;;;;;;;;;;;;
2023/03/13 06:14:09;;;;;;;;;;;;;;;;;;;;;
2023/03/13 06:17:06;;;;;;;;;;;;;;;;;;;;;
2023/03/13 06:20:02;;;;;;;4.03;1.60;;;;;;;12.10;100.00;99600.22;5034816;28;20037;-93
2023/03/13 06:32:51;;;;;;;8.13;2.20;;;;;;;12.07;100.00;99587.13;4974195;28;20058;-90
2023/03/13 06:42:45;;;;;;;9.68;2.15;;;;;;;12.19;100.00;99595.13;4923032;29;20059;-90
2023/03/13 06:54:57;;;;;;;8.18;1.98;;;;;;;12.14;100.00;99581.50;4935821;28;20083;-90
2023/03/13 07:00:51;;;;;;;;;;;;;;;;;;;;;
2023/03/13 07:07:16;;;;;;;;;;;;;;;;;;;;;
2023/03/13 07:10:26;;;;;;;;;;;;;;;;;;;;;
2023/03/13 07:13:08;;;;;;;;;;;;;;;;;;;;;
2023/03/13 08:07:46;;;;;;;8.88;2.25;;;;;;;12.97;100.00;99575.63;4912741;29;20051;-91
2023/03/13 08:28:24;;;;;;;;;;;;;;;;;;;;;
2023/03/13 08:38:17;;;;;;;;;;;;;;;;;;;;;
2023/03/13 09:04:47;;;;;;;;;;;;;;;;;;;;;
2023/03/13 09:23:48;;;;;;;;;;;;;;;;;;;;;
2023/03/13 10:01:02;;;;;;;4.82;1.20;;;;;;;15.20;84.71;99474.78;4844337;29;20065;-94
2023/03/13 10:04:18;;;;;;;;;;;;;;;;;;;;;
2023/03/13 10:25:10;;;;;;;;;;;;;;;;;;;;;
2023/03/13 10:28:10;;;;;;;;;;;;;;;;;;;;;
2023/03/13 10:38:10;;;;;;;;;;;;;;;;;;;;;
2023/03/13 11:15:24;;;;;;;;;;;;;;;;;;;;;
2023/03/13 11:32:36;;;;;;;;;;;;;;;;;;;;;
2023/03/13 11:46:22;;;;;;;4.80;1.40;;;;;;;18.06;60.79;99374.63;4879732;29;20160;-95
2023/03/13 12:13:46;;;;;;;;;;;;;;;;;;;;;
2023/03/13 12:17:00;;;;;;;;;;;;;;;;;;;;;
2023/03/13 12:20:21;;;;;;;5.50;1.23;;;;;;;18.47;57.64;99307.97;4928221;28;20380;-94
2023/03/13 12:33:23;;;;;;;12.23;1.48;;;;;;;23.65;43.05;99286.91;4974113;28;20057;-90
2023/03/13 12:36:18;;;;;;;11.90;1.40;;;;;;;23.44;42.97;99303.56;5036643;28;20129;-89
2023/03/13 12:39:49;;;;;;;;;;;;;;;;;;;;;
2023/03/13 12:42:43;;;;;;;2.80;1.25;;;;;;;25.32;36.20;99263.34;5023030;28;20036;-90
2023/03/13 12:45:36;;;;;;;;;;;;;;;;;;;;;
2023/03/13 12:48:25;;;;;;;3.38;1.15;;;;;;;24.44;36.72;99261.03;5038355;28;20059;-89
2023/03/13 12:51:21;;;;;;;;;;;;;;;;;;;;;
2023/03/13 12:54:30;;;;;;;8.15;1.30;;;;;;;24.12;37.79;99237.84;5004027;28;20485;-92
2023/03/13 13:03:57;;;;;;;11.15;1.42;;;;;;;25.91;33.48;99242.28;5042313;28;20079;-93
2023/03/13 13:06:52;;;;;;;4.60;1.27;;;;;;;26.24;32.82;99241.13;5041946;28;20044;-91
2023/03/13 13:09:48;;;;;;;;;;;;;;;;;;;;;
2023/03/13 13:12:32;;;;;;;9.80;1.20;;;;;;;26.90;30.47;99251.78;5046658;28;20117;-92
2023/03/13 13:15:28;;;;;;;6.83;1.53;;;;;;;27.10;30.57;99231.13;5042908;28;20029;-92
2023/03/13 13:18:42;;;;;;;11.90;2.50;;;;;;;26.25;32.71;99255.84;4946874;29;20043;-92
2023/03/13 13:21:32;;;;;;;;;;;;;;;;;;;;;
2023/03/13 13:24:54;;;;;;;11.75;1.48;;;;;;;24.58;36.13;99237.69;5039910;28;20438;-90
2023/03/13 13:28:02;;;;;;;;;;;;;;;;;;;;;
2023/03/13 13:30:54;;;;;;;6.57;1.50;;;;;;;25.53;35.80;99231.78;5020603;28;20485;-90
2023/03/13 13:36:42;;;;;;;7.63;1.80;;;;;;;25.89;34.36;99182.69;5031068;28;20037;-90
2023/03/13 13:39:30;;;;;;;97.03;7.43;;;;;;;24.97;35.90;99233.38;5036538;28;20045;-83
2023/03/13 13:41:56;;;;;;;7.18;2.00;;;;;;;25.58;34.90;99191.84;5035367;28;20037;-90
2023/03/13 13:44:36;;;;;;;6.33;1.30;;;;;;;24.24;36.89;99184.38;5034525;28;20032;-89
2023/03/13 13:47:36;;;;;;;4.70;1.42;;;;;;;22.11;40.58;99239.50;5022882;28;20430;-89
2023/03/13 13:50:23;;;;;;;5.30;1.27;;;;;;;20.99;43.76;99185.88;5036124;28;20029;-86
2023/03/13 13:52:54;;;;;;;4.13;1.10;;;;;;;21.70;43.35;99179.09;5035940;28;20027;-88
2023/03/13 13:55:42;;;;;;;3.50;1.10;;;;;;;22.79;40.96;99181.38;5038209;28;20025;-90
2023/03/13 14:08:38;;;;;;;7.38;1.75;;;;;;;22.28;40.35;99192.47;4952882;28;20428;-93
2023/03/13 14:11:53;;;;;;;8.83;1.53;;;;;;;22.01;40.75;99166.13;5035239;28;20048;-91
2023/03/13 14:14:43;;;;;;;4.53;1.20;;;;;;;21.10;41.78;99161.53;5035439;28;20041;-95
2023/03/13 14:17:27;;;;;;;;;;;;;;;;;;;;;
2023/03/13 14:26:58;;;;;;;;;;;;;;;;;;;;;
2023/03/13 14:30:09;;;;;;;4.85;1.10;;;;;;;20.28;45.17;99167.66;4956716;29;20529;-95
2023/03/13 14:33:42;;;;;;;;;;;;;;;;;;;;;
2023/03/13 14:36:32;;;;;;;;;;;;;;;;;;;;;
2023/03/13 14:39:47;;;;;;;;;;;;;;;;;;;;;
2023/03/13 14:49:09;;;;;;;9.20;1.38;;;;;;;22.33;40.36;99130.69;4969745;28;20094;-95
2023/03/13 14:52:07;;;;;;;11.55;1.80;;;;;;;22.82;39.55;99116.31;5033568;28;20042;-93
2023/03/13 15:12:13;;;;;;;22.70;2.17;;;;;;;21.59;41.02;99092.28;3671959;22;20460;-94
2023/03/13 15:18:43;;;;;;;;;;;;;;;;;;;;;
2023/03/13 15:22:21;;;;;;;;;;;;;;;;;;;;;
2023/03/13 15:25:50;;;;;;;6.05;1.70;;;;;;;23.45;37.04;99060.81;4995903;28;20073;-94
2023/03/13 15:31:44;;;;;;;;;;;;;;;;;;;;;
2023/03/13 15:34:46;;;;;;;9.35;1.70;;;;;;;20.95;40.05;99055.34;5012688;28;20040;-95
2023/03/13 15:37:27;;;;;;;8.73;1.45;;;;;;;20.14;40.58;99070.63;5045610;28;20041;-96
2023/03/13 15:40:23;;;;;;;11.32;1.70;;;;;;;21.14;39.56;99051.38;5053436;28;20033;-96
2023/03/13 15:43:51;;;;;;;;;;;;;;;;;;;;;
2023/03/13 15:53:41;;;;;;;8.70;2.30;;;;;;;21.72;36.49;99024.22;4963233;28;20041;-94
2023/03/13 15:56:49;;;;;;;13.30;2.15;;;;;;;20.68;38.26;99010.50;5008176;28;20620;-94
2023/03/13 16:03:05;;;;;;;;;;;;;;;;;;;;;
2023/03/13 16:06:13;;;;;;;;;;;;;;;;;;;;;
2023/03/13 16:15:49;;;;;;;;;;;;;;;;;;;;;
2023/03/13 16:21:51;;;;;;;6.93;1.30;;;;;;;21.01;38.79;98962.25;4978685;28;20066;-95
2023/03/13 16:25:01;;;;;;;6.50;1.40;;;;;;;21.85;37.18;98970.69;4976882;28;20117;-96
2023/03/13 16:27:56;;;;;;;;;;;;;;;;;;;;;
2023/03/13 16:36:12;;;;;;;5.97;1.38;;;;;;;19.23;43.34;98962.97;5712262;22;20106;-96
2023/03/13 16:39:10;;;;;;;8.00;1.50;;;;;;;18.69;45.00;98974.03;5075256;28;20479;-96
2023/03/13 16:48:20;;;;;;;;;;;;;;;;;;;;;
2023/03/13 16:51:10;;;;;;;5.18;1.42;;;;;;;17.24;48.39;98946.38;4968447;28;20046;-96
2023/03/13 16:53:41;;;;;;;5.93;1.60;;;;;;;17.38;49.12;98970.22;4971192;28;20073;-96
2023/03/13 16:56:57;;;;;;;4.75;1.23;;;;;;;17.97;47.35;98962.91;4959629;28;20478;-96
2023/03/13 16:59:29;;;;;;;8.23;1.33;;;;;;;18.29;46.29;98950.09;4978972;28;20108;-96
2023/03/13 17:02:33;;;;;;;;;;;;;;;;;;;;;
2023/03/13 17:05:15;;;;;;;5.45;1.20;;;;;;;18.04;46.96;98959.72;4998593;28;20034;-96
2023/03/13 17:11:06;;;;;;;;;;;;;;;;;;;;;
2023/03/13 17:17:55;;;;;;;6.85;1.48;;;;;;;16.43;50.88;98949.56;4967374;28;20034;-96
2023/03/13 17:27:50;;;;;;;7.20;1.60;;;;;;;15.49;54.28;98946.63;5009801;28;20115;-95
2023/03/13 17:30:30;;;;;;;8.10;1.50;;;;;;;15.20;55.42;98944.00;4985847;28;20045;-96
2023/03/13 17:33:11;;;;;;;6.88;1.65;;;;;;;15.12;55.84;98956.38;4999478;28;20051;-96
2023/03/13 17:36:21;;;;;;;10.68;1.73;;;;;;;14.96;56.87;98966.66;4999482;28;20026;-96
2023/03/13 17:39:01;;;;;;;9.13;1.45;;;;;;;14.94;57.53;98959.88;4988348;28;20047;-94
2023/03/13 17:41:50;;;;;;;;;;;;;;;;;;;;;
2023/03/13 17:47:57;;;;;;;9.13;1.77;;;;;;;14.68;58.73;98954.69;5002818;28;20081;-93
2023/03/13 17:50:34;;;;;;;10.48;1.90;;;;;;;14.58;58.62;98936.47;5017492;28;20042;-93
2023/03/13 17:56:28;;;;;;;8.35;1.58;;;;;;;14.53;59.66;98952.91;5002970;28;20069;-92
2023/03/13 18:02:16;;;;;;;;;;;;;;;;;;;;;
2023/03/13 18:04:52;;;;;;;6.55;1.20;;;;;;;14.26;60.49;98929.69;4986371;28;20393;-92
2023/03/13 18:20:38;;;;;;;7.10;1.40;;;;;;;14.02;62.37;98933.16;5001540;28;20048;-92
2023/03/13 18:23:19;;;;;;;8.43;1.63;;;;;;;13.87;62.80;98925.09;5015199;28;20038;-91
2023/03/13 18:26:21;;;;;;;8.93;1.48;;;;;;;13.90;62.76;98931.88;4942598;29;20031;-91
2023/03/13 18:29:27;;;;;;;8.67;2.27;;;;;;;13.80;63.05;98913.69;5014468;28;20038;-93
2023/03/13 18:32:06;;;;;;;7.82;1.35;;;;;;;13.75;63.48;98892.75;4982864;28;20052;-92
2023/03/13 18:34:55;;;;;;;7.13;1.58;;;;;;;13.69;64.02;98891.16;4998424;28;20429;-92
2023/03/13 18:37:32;;;;;;;5.72;1.63;;;;;;;13.61;64.35;98894.47;4984507;28;20038;-91
2023/03/13 18:40:35;;;;;;;8.75;2.03;;;;;;;13.58;64.86;98900.50;5015353;28;20052;-92
2023/03/13 18:43:21;;;;;;;6.00;1.20;;;;;;;13.54;65.24;98891.25;4997934;28;20209;-91
2023/03/13 18:46:10;;;;;;;6.93;1.50;;;;;;;13.45;65.50;98883.69;5000374;28;20058;-91
2023/03/13 18:51:52;;;;;;;5.68;1.50;;;;;;;13.30;66.21;98870.13;5004362;28;20030;-92
2023/03/13 18:54:44;;;;;;;6.60;1.65;;;;;;;13.37;66.61;98894.38;4997286;28;20036;-92
2023/03/13 18:57:30;;;;;;;8.07;1.43;;;;;;;13.22;66.65;98871.53;4984039;28;20120;-92
2023/03/13 19:03:22;;;;;;;10.32;1.77;;;;;;;13.21;66.77;98866.38;4956587;28;20073;-91
2023/03/13 19:09:33;;;;;;;;;;;;;;;;;;;;;
2023/03/13 19:12:18;;;;;;;9.30;2.10;;;;;;;12.98;68.52;98869.47;4986732;28;20046;-91
2023/03/13 19:14:47;;;;;;;7.63;1.38;;;;;;;12.91;68.49;98866.25;4996842;28;20033;-90
2023/03/13 19:20:33;;;;;;;7.53;1.67;;;;;;;12.84;68.83;98867.66;4989312;28;20095;-92
2023/03/13 19:23:18;;;;;;;10.38;1.58;;;;;;;12.78;69.11;98862.25;4981390;28;20033;-92
2023/03/13 19:25:55;;;;;;;7.10;1.37;;;;;;;12.73;69.31;98864.16;4996937;28;20550;-92
2023/03/13 19:28:34;;;;;;;;;;;;;;;;;;;;;
2023/03/13 19:30:59;;;;;;;5.88;1.48;;;;;;;12.63;70.18;98852.19;4999136;28;20491;-90
2023/03/13 19:33:58;;;;;;;;;;;;;;;;;;;;;
2023/03/13 19:36:45;;;;;;;6.53;1.58;;;;;;;12.60;70.63;98846.53;5015582;28;20480;-90
2023/03/13 19:42:22;;;;;;;;;;;;;;;;;;;;;
2023/03/13 19:45:02;;;;;;;9.30;1.85;;;;;;;12.40;73.03;98817.47;4998605;28;20041;-90
2023/03/13 19:47:30;;;;;;;8.07;1.33;;;;;;;12.42;73.64;98824.28;4981286;28;20124;-90
2023/03/13 19:50:08;;;;;;;9.32;1.77;;;;;;;12.37;74.07;98826.19;4981123;28;20061;-91
2023/03/13 19:52:52;;;;;;;12.20;2.20;;;;;;;12.41;73.61;98819.09;4996805;28;20378;-91
2023/03/13 19:55:25;;;;;;;9.32;1.90;;;;;;;12.39;74.69;98827.53;4980987;28;20390;-91
2023/03/13 19:58:00;;;;;;;11.35;1.70;;;;;;;12.36;75.28;98814.50;4981034;28;20128;-91
2023/03/13 20:00:34;;;;;;;12.10;1.87;;;;;;;12.39;75.69;98826.75;4996708;28;20434;-90
2023/03/13 20:03:09;;;;;;;;;;;;;;;;;;;;;
2023/03/13 20:05:40;;;;;;;6.90;1.90;;;;;;;12.30;76.88;98845.53;5014416;28;20373;-91
2023/03/13 20:08:11;;;;;;;11.23;1.98;;;;;;;12.32;77.44;98848.78;4980407;28;20072;-90
2023/03/13 20:10:38;;;;;;;9.52;1.92;;;;;;;12.26;77.79;98839.00;4979869;28;20107;-91
2023/03/13 20:13:10;;;;;;;5.67;2.07;;;;;;;12.31;77.72;98836.25;4995980;28;20077;-91
2023/03/13 20:15:41;;;;;;;8.98;1.90;;;;;;;12.36;78.01;98843.63;4996168;28;20038;-91
2023/03/13 20:18:24;;;;;;;7.40;1.90;;;;;;;12.23;78.75;98842.28;4980711;28;20493;-91
2023/03/13 20:20:52;;;;;;;5.72;1.73;;;;;;;12.27;79.19;98862.41;4996333;28;20466;-91
2023/03/13 20:23:35;;;;;;;;;;;;;;;;;;;;;
2023/03/13 20:26:13;;;;;;;;;;;;;;;;;;;;;
2023/03/13 20:28:56;;;;;;;11.48;2.17;;;;;;;12.13;80.45;98845.00;5018436;28;20476;-93
2023/03/13 20:31:30;;;;;;;10.23;2.42;;;;;;;12.14;81.10;98827.63;5000276;28;20034;-93
2023/03/13 20:34:01;;;;;;;8.75;1.60;;;;;;;12.13;81.44;98831.41;5017205;28;20485;-93
2023/03/13 20:37:01;;;;;;;;;;;;;;;;;;;;;
2023/03/13 20:39:44;;;;;;;10.50;2.10;;;;;;;12.06;82.46;98848.00;5018339;28;20377;-92
2023/03/13 20:42:22;;;;;;;;;;;;;;;;;;;;;
2023/03/13 20:45:11;;;;;;;;;;;;;;;;;;;;;
2023/03/13 20:48:40;;;;;;;10.73;2.42;;;;;;;12.05;84.56;98855.34;4906566;29;20047;-94
2023/03/13 20:51:12;;;;;;;8.45;2.08;;;;;;;12.03;84.99;98859.41;4903936;29;20063;-92
2023/03/13 21:22:01;;;;;;;8.30;1.67;;;;;;;12.37;86.37;98842.50;4984887;28;20049;-90
2023/03/13 21:25:01;;;;;;;7.20;1.90;;;;;;;12.35;86.41;98825.66;4979517;28;20129;-89
2023/03/13 21:48:32;;;;;;;;;;;;;;;;;;;;;
2023/03/13 21:51:38;;;;;;;;;;;;;;;;;;;;;
2023/03/13 21:54:40;;;;;;;7.93;1.70;;;;;;;11.59;91.03;98801.81;4795148;29;20618;-96
2023/03/13 21:57:29;;;;;;;10.70;2.05;;;;;;;11.62;91.39;98810.50;4781615;30;20420;-96
2023/03/13 22:00:40;;;;;;;8.83;1.87;;;;;;;11.58;91.50;98807.53;4792582;29;20145;-96
2023/03/13 22:03:35;;;;;;;;;;;;;;;;;;;;;
2023/03/13 22:07:01;;;;;;;6.80;1.60;;;;;;;11.51;91.98;98805.06;4841244;29;20509;-96
2023/03/13 22:09:31;;;;;;;8.05;1.83;;;;;;;11.42;91.98;98795.84;4829239;29;20536;-96
2023/03/13 22:12:42;;;;;;;;;;;;;;;;;;;;;
2023/03/13 22:15:51;;;;;;;8.73;1.60;;;;;;;11.39;91.29;98777.38;5007829;28;20099;-96
2023/03/13 22:18:47;;;;;;;;;;;;;;;;;;;;;
2023/03/13 22:25:21;;;;;;;;;;;;;;;;;;;;;
2023/03/13 22:28:44;;;;;;;;;;;;;;;;;;;;;
2023/03/13 22:35:22;;;;;;;;;;;;;;;;;;;;;
2023/03/13 22:42:35;;;;;;;8.85;1.65;;;;;;;11.26;91.40;98791.50;4964273;29;20487;-96
2023/03/13 22:55:07;;;;;;;9.73;1.75;;;;;;;11.29;91.58;98777.38;5014325;28;20065;-96
2023/03/13 23:15:51;;;;;;;;;;;;;;;;;;;;;
2023/03/13 23:26:00;;;;;;;9.30;1.67;;;;;;;11.52;89.32;98754.31;4873186;29;20033;-96
2023/03/13 23:29:09;;;;;;;;;;;;;;;;;;;;;
2023/03/13 23:32:39;;;;;;;7.50;1.70;;;;;;;10.78;100.00;98770.00;4873932;29;20129;-96
2023/03/13 23:36:13;;;;;;;;;;;;;;;;;;;;;
2023/03/13 23:39:03;;;;;;;8.68;1.58;;;;;;;9.91;100.00;98779.34;4862911;29;20140;-96
2023/03/13 23:44:57;;;;;;;9.63;1.67;;;;;;;9.60;100.00;98819.75;4886430;29;20097;-96
2023/03/13 23:48:03;;;;;;;;;;;;;;;;;;;;;
2023/03/13 23:50:50;;;;;;;15.15;2.40;;;;;;;9.41;100.00;98799.56;4994580;28;20524;-96
2023/03/13 23:53:51;;;;;;;9.63;1.45;;;;;;;9.33;100.00;98803.56;5015308;28;20045;-96
2023/03/13 23:56:35;;;;;;;;;;;;;;;;;;;;;
